sensor_id;sensor_type;location;lat;lon;timestamp;P1;durP1;ratioP1;P2;durP2;ratioP2
17173;SDS011;8702;48.130;-1.696;2023-02-10T00:01:50;29.70;;;23.93;;
17173;SDS011;8702;48.130;-1.696;2023-02-10T00:04:16;27.37;;;23.00;;
17173;SDS011;8702;48.130;-1.696;2023-02-10T00:06:43;28.77;;;24.07;;
17173;SDS011;8702;48.130;-1.696;2023-02-10T00:09:12;26.90;;;23.63;;
17173;SDS011;8702;48.130;-1.696;2023-02-10T00:11:39;27.73;;;22.90;;
17173;SDS011;8702;48.130;-1.696;2023-02-10T00:14:24;27.93;;;23.17;;
17173;SDS011;8702;48.130;-1.696;2023-02-10T00:16:51;26.33;;;23.57;;
17173;SDS011;8702;48.130;-1.696;2023-02-10T00:19:19;25.63;;;22.77;;
17173;SDS011;8702;48.130;-1.696;2023-02-10T00:21:47;27.37;;;24.57;;
17173;SDS011;8702;48.130;-1.696;2023-02-10T00:24:16;27.73;;;24.47;;
17173;SDS011;8702;48.130;-1.696;2023-02-10T00:26:43;27.03;;;23.97;;
17173;SDS011;8702;48.130;-1.696;2023-02-10T00:29:10;27.47;;;24.53;;
17173;SDS011;8702;48.130;-1.696;2023-02-10T00:31:37;28.23;;;24.37;;
17173;SDS011;8702;48.130;-1.696;2023-02-10T00:34:05;28.27;;;22.50;;
17173;SDS011;8702;48.130;-1.696;2023-02-10T00:36:34;27.77;;;23.87;;
17173;SDS011;8702;48.130;-1.696;2023-02-10T00:39:01;28.33;;;24.43;;
17173;SDS011;8702;48.130;-1.696;2023-02-10T00:41:29;27.00;;;24.10;;
17173;SDS011;8702;48.130;-1.696;2023-02-10T00:43:56;28.33;;;24.00;;
17173;SDS011;8702;48.130;-1.696;2023-02-10T00:46:23;29.43;;;24.20;;
17173;SDS011;8702;48.130;-1.696;2023-02-10T00:48:51;27.43;;;24.40;;
17173;SDS011;8702;48.130;-1.696;2023-02-10T00:51:18;31.80;;;25.03;;
17173;SDS011;8702;48.130;-1.696;2023-02-10T00:53:45;26.83;;;24.10;;
17173;SDS011;8702;48.130;-1.696;2023-02-10T00:56:15;29.57;;;24.13;;
17173;SDS011;8702;48.130;-1.696;2023-02-10T00:58:44;29.63;;;25.33;;
17173;SDS011;8702;48.130;-1.696;2023-02-10T01:01:11;27.47;;;24.57;;
17173;SDS011;8702;48.130;-1.696;2023-02-10T01:03:38;29.70;;;25.70;;
17173;SDS011;8702;48.130;-1.696;2023-02-10T01:06:06;28.67;;;25.37;;
17173;SDS011;8702;48.130;-1.696;2023-02-10T01:08:34;27.97;;;24.40;;
17173;SDS011;8702;48.130;-1.696;2023-02-10T01:11:01;29.67;;;24.17;;
17173;SDS011;8702;48.130;-1.696;2023-02-10T01:13:29;32.73;;;25.57;;
17173;SDS011;8702;48.130;-1.696;2023-02-10T01:16:00;27.43;;;24.47;;
17173;SDS011;8702;48.130;-1.696;2023-02-10T01:18:35;30.17;;;25.47;;
17173;SDS011;8702;48.130;-1.696;2023-02-10T01:21:05;27.07;;;24.17;;
17173;SDS011;8702;48.130;-1.696;2023-02-10T01:23:33;32.23;;;26.07;;
17173;SDS011;8702;48.130;-1.696;2023-02-10T01:26:00;30.10;;;25.87;;
17173;SDS011;8702;48.130;-1.696;2023-02-10T01:28:27;29.73;;;25.47;;
17173;SDS011;8702;48.130;-1.696;2023-02-10T01:30:54;29.40;;;26.23;;
17173;SDS011;8702;48.130;-1.696;2023-02-10T01:33:22;31.27;;;25.77;;
17173;SDS011;8702;48.130;-1.696;2023-02-10T01:35:49;28.27;;;25.17;;
17173;SDS011;8702;48.130;-1.696;2023-02-10T01:38:16;29.60;;;24.97;;
17173;SDS011;8702;48.130;-1.696;2023-02-10T01:40:46;31.13;;;24.63;;
17173;SDS011;8702;48.130;-1.696;2023-02-10T01:43:14;32.30;;;25.13;;
17173;SDS011;8702;48.130;-1.696;2023-02-10T01:45:42;29.87;;;24.83;;
17173;SDS011;8702;48.130;-1.696;2023-02-10T01:48:11;29.80;;;25.20;;
17173;SDS011;8702;48.130;-1.696;2023-02-10T01:50:41;27.67;;;24.67;;
17173;SDS011;8702;48.130;-1.696;2023-02-10T01:53:13;28.57;;;25.47;;
17173;SDS011;8702;48.130;-1.696;2023-02-10T01:55:42;28.30;;;25.27;;
17173;SDS011;8702;48.130;-1.696;2023-02-10T01:58:13;29.40;;;24.87;;
17173;SDS011;8702;48.130;-1.696;2023-02-10T02:00:44;31.00;;;24.60;;
17173;SDS011;8702;48.130;-1.696;2023-02-10T02:03:10;33.97;;;25.87;;
17173;SDS011;8702;48.130;-1.696;2023-02-10T02:05:38;30.43;;;24.07;;
17173;SDS011;8702;48.130;-1.696;2023-02-10T02:08:08;27.47;;;23.93;;
17173;SDS011;8702;48.130;-1.696;2023-02-10T02:13:35;28.73;;;25.27;;
17173;SDS011;8702;48.130;-1.696;2023-02-10T02:16:24;27.90;;;24.87;;
17173;SDS011;8702;48.130;-1.696;2023-02-10T02:18:59;30.00;;;25.50;;
17173;SDS011;8702;48.130;-1.696;2023-02-10T02:21:47;27.43;;;24.60;;
17173;SDS011;8702;48.130;-1.696;2023-02-10T02:24:40;30.70;;;25.53;;
17173;SDS011;8702;48.130;-1.696;2023-02-10T02:27:38;28.97;;;24.07;;
17173;SDS011;8702;48.130;-1.696;2023-02-10T02:30:36;29.50;;;25.23;;
17173;SDS011;8702;48.130;-1.696;2023-02-10T02:33:16;28.47;;;24.43;;
17173;SDS011;8702;48.130;-1.696;2023-02-10T02:35:46;28.03;;;24.70;;
17173;SDS011;8702;48.130;-1.696;2023-02-10T02:38:18;29.47;;;25.03;;
17173;SDS011;8702;48.130;-1.696;2023-02-10T02:40:45;26.10;;;23.30;;
17173;SDS011;8702;48.130;-1.696;2023-02-10T02:43:11;27.90;;;24.70;;
17173;SDS011;8702;48.130;-1.696;2023-02-10T02:45:41;30.93;;;24.77;;
17173;SDS011;8702;48.130;-1.696;2023-02-10T02:48:29;28.17;;;22.97;;
17173;SDS011;8702;48.130;-1.696;2023-02-10T02:51:09;27.57;;;24.40;;
17173;SDS011;8702;48.130;-1.696;2023-02-10T02:53:45;26.97;;;22.90;;
17173;SDS011;8702;48.130;-1.696;2023-02-10T02:56:20;32.10;;;23.80;;
17173;SDS011;8702;48.130;-1.696;2023-02-10T02:58:54;29.50;;;24.53;;
17173;SDS011;8702;48.130;-1.696;2023-02-10T03:01:28;28.73;;;24.33;;
17173;SDS011;8702;48.130;-1.696;2023-02-10T03:03:59;27.07;;;23.77;;
17173;SDS011;8702;48.130;-1.696;2023-02-10T03:06:28;29.37;;;23.70;;
17173;SDS011;8702;48.130;-1.696;2023-02-10T03:08:55;27.50;;;24.50;;
17173;SDS011;8702;48.130;-1.696;2023-02-10T03:11:21;27.67;;;24.77;;
17173;SDS011;8702;48.130;-1.696;2023-02-10T03:13:49;28.17;;;23.97;;
17173;SDS011;8702;48.130;-1.696;2023-02-10T03:16:16;27.90;;;25.00;;
17173;SDS011;8702;48.130;-1.696;2023-02-10T03:18:42;27.47;;;24.43;;
17173;SDS011;8702;48.130;-1.696;2023-02-10T03:21:11;32.07;;;25.03;;
17173;SDS011;8702;48.130;-1.696;2023-02-10T03:23:38;26.23;;;23.13;;
17173;SDS011;8702;48.130;-1.696;2023-02-10T03:26:04;28.53;;;24.60;;
17173;SDS011;8702;48.130;-1.696;2023-02-10T03:28:31;31.00;;;25.07;;
17173;SDS011;8702;48.130;-1.696;2023-02-10T03:31:01;26.43;;;23.57;;
17173;SDS011;8702;48.130;-1.696;2023-02-10T03:33:29;28.50;;;23.70;;
17173;SDS011;8702;48.130;-1.696;2023-02-10T03:35:56;27.20;;;24.40;;
17173;SDS011;8702;48.130;-1.696;2023-02-10T03:38:24;31.07;;;25.23;;
17173;SDS011;8702;48.130;-1.696;2023-02-10T03:40:52;27.23;;;24.30;;
17173;SDS011;8702;48.130;-1.696;2023-02-10T03:43:20;28.70;;;25.03;;
17173;SDS011;8702;48.130;-1.696;2023-02-10T03:45:47;27.43;;;24.50;;
17173;SDS011;8702;48.130;-1.696;2023-02-10T03:48:14;28.10;;;23.93;;
17173;SDS011;8702;48.130;-1.696;2023-02-10T03:50:41;27.30;;;24.30;;
17173;SDS011;8702;48.130;-1.696;2023-02-10T03:53:08;26.03;;;23.30;;
17173;SDS011;8702;48.130;-1.696;2023-02-10T03:55:37;31.13;;;24.23;;
17173;SDS011;8702;48.130;-1.696;2023-02-10T03:58:04;26.87;;;24.13;;
17173;SDS011;8702;48.130;-1.696;2023-02-10T04:00:31;32.27;;;24.33;;
17173;SDS011;8702;48.130;-1.696;2023-02-10T04:02:58;28.73;;;24.77;;
17173;SDS011;8702;48.130;-1.696;2023-02-10T04:05:25;27.10;;;24.30;;
17173;SDS011;8702;48.130;-1.696;2023-02-10T04:07:51;28.43;;;24.40;;
17173;SDS011;8702;48.130;-1.696;2023-02-10T04:10:20;30.93;;;24.40;;
17173;SDS011;8702;48.130;-1.696;2023-02-10T04:12:48;28.23;;;24.27;;
17173;SDS011;8702;48.130;-1.696;2023-02-10T04:15:15;29.17;;;23.17;;
17173;SDS011;8702;48.130;-1.696;2023-02-10T04:17:42;27.53;;;23.47;;
17173;SDS011;8702;48.130;-1.696;2023-02-10T04:20:09;28.07;;;25.10;;
17173;SDS011;8702;48.130;-1.696;2023-02-10T04:22:36;27.67;;;23.63;;
17173;SDS011;8702;48.130;-1.696;2023-02-10T04:25:04;26.37;;;23.53;;
17173;SDS011;8702;48.130;-1.696;2023-02-10T04:27:31;29.03;;;24.30;;
17173;SDS011;8702;48.130;-1.696;2023-02-10T04:30:00;27.83;;;24.87;;
17173;SDS011;8702;48.130;-1.696;2023-02-10T04:32:27;26.97;;;24.07;;
17173;SDS011;8702;48.130;-1.696;2023-02-10T04:34:53;26.40;;;23.63;;
17173;SDS011;8702;48.130;-1.696;2023-02-10T04:37:20;27.00;;;24.03;;
17173;SDS011;8702;48.130;-1.696;2023-02-10T04:39:47;29.23;;;23.87;;
17173;SDS011;8702;48.130;-1.696;2023-02-10T04:42:14;28.33;;;25.23;;
17173;SDS011;8702;48.130;-1.696;2023-02-10T04:44:41;26.00;;;22.70;;
17173;SDS011;8702;48.130;-1.696;2023-02-10T04:47:09;28.17;;;22.23;;
17173;SDS011;8702;48.130;-1.696;2023-02-10T04:49:36;25.30;;;22.47;;
17173;SDS011;8702;48.130;-1.696;2023-02-10T04:52:03;28.13;;;23.80;;
17173;SDS011;8702;48.130;-1.696;2023-02-10T04:54:30;25.50;;;22.90;;
17173;SDS011;8702;48.130;-1.696;2023-02-10T04:56:57;28.20;;;23.33;;
17173;SDS011;8702;48.130;-1.696;2023-02-10T04:59:24;27.23;;;23.67;;
17173;SDS011;8702;48.130;-1.696;2023-02-10T05:01:50;27.27;;;23.73;;
17173;SDS011;8702;48.130;-1.696;2023-02-10T05:04:19;27.93;;;24.53;;
17173;SDS011;8702;48.130;-1.696;2023-02-10T05:06:47;28.20;;;24.57;;
17173;SDS011;8702;48.130;-1.696;2023-02-10T05:09:13;26.07;;;23.00;;
17173;SDS011;8702;48.130;-1.696;2023-02-10T05:11:41;28.07;;;23.97;;
17173;SDS011;8702;48.130;-1.696;2023-02-10T05:14:08;26.40;;;23.40;;
17173;SDS011;8702;48.130;-1.696;2023-02-10T05:16:35;30.60;;;23.90;;
17173;SDS011;8702;48.130;-1.696;2023-02-10T05:19:02;26.10;;;23.27;;
17173;SDS011;8702;48.130;-1.696;2023-02-10T05:21:31;28.97;;;23.40;;
17173;SDS011;8702;48.130;-1.696;2023-02-10T05:23:57;29.00;;;24.43;;
17173;SDS011;8702;48.130;-1.696;2023-02-10T05:26:24;28.37;;;23.30;;
17173;SDS011;8702;48.130;-1.696;2023-02-10T05:28:51;26.73;;;22.80;;
17173;SDS011;8702;48.130;-1.696;2023-02-10T05:31:18;28.50;;;23.47;;
17173;SDS011;8702;48.130;-1.696;2023-02-10T05:33:48;30.27;;;24.70;;
17173;SDS011;8702;48.130;-1.696;2023-02-10T05:36:14;27.17;;;23.87;;
17173;SDS011;8702;48.130;-1.696;2023-02-10T05:38:43;26.07;;;23.27;;
17173;SDS011;8702;48.130;-1.696;2023-02-10T05:41:30;26.23;;;23.33;;
17173;SDS011;8702;48.130;-1.696;2023-02-10T05:43:57;26.73;;;23.93;;
17173;SDS011;8702;48.130;-1.696;2023-02-10T05:46:24;25.20;;;22.67;;
17173;SDS011;8702;48.130;-1.696;2023-02-10T05:48:50;24.83;;;22.17;;
17173;SDS011;8702;48.130;-1.696;2023-02-10T05:51:17;24.97;;;22.33;;
17173;SDS011;8702;48.130;-1.696;2023-02-10T05:53:45;28.77;;;22.10;;
17173;SDS011;8702;48.130;-1.696;2023-02-10T05:56:12;25.93;;;22.63;;
17173;SDS011;8702;48.130;-1.696;2023-02-10T05:58:39;25.77;;;22.47;;
17173;SDS011;8702;48.130;-1.696;2023-02-10T06:01:07;28.17;;;23.33;;
17173;SDS011;8702;48.130;-1.696;2023-02-10T06:03:35;27.83;;;22.73;;
17173;SDS011;8702;48.130;-1.696;2023-02-10T06:06:02;23.87;;;21.37;;
17173;SDS011;8702;48.130;-1.696;2023-02-10T06:08:29;27.93;;;22.13;;
17173;SDS011;8702;48.130;-1.696;2023-02-10T06:10:58;25.33;;;22.13;;
17173;SDS011;8702;48.130;-1.696;2023-02-10T06:13:25;23.27;;;20.93;;
17173;SDS011;8702;48.130;-1.696;2023-02-10T06:15:52;23.80;;;21.13;;
17173;SDS011;8702;48.130;-1.696;2023-02-10T06:18:19;24.27;;;21.70;;
17173;SDS011;8702;48.130;-1.696;2023-02-10T06:20:45;29.23;;;21.07;;
17173;SDS011;8702;48.130;-1.696;2023-02-10T06:23:13;25.03;;;21.43;;
17173;SDS011;8702;48.130;-1.696;2023-02-10T06:25:40;23.73;;;20.20;;
17173;SDS011;8702;48.130;-1.696;2023-02-10T06:28:08;25.30;;;21.80;;
17173;SDS011;8702;48.130;-1.696;2023-02-10T06:30:35;25.13;;;20.80;;
17173;SDS011;8702;48.130;-1.696;2023-02-10T06:33:02;27.67;;;21.63;;
17173;SDS011;8702;48.130;-1.696;2023-02-10T06:35:29;23.23;;;20.70;;
17173;SDS011;8702;48.130;-1.696;2023-02-10T06:37:56;23.60;;;20.47;;
17173;SDS011;8702;48.130;-1.696;2023-02-10T06:40:23;24.17;;;21.60;;
17173;SDS011;8702;48.130;-1.696;2023-02-10T06:42:50;25.27;;;20.60;;
17173;SDS011;8702;48.130;-1.696;2023-02-10T06:45:18;23.93;;;19.37;;
17173;SDS011;8702;48.130;-1.696;2023-02-10T06:47:45;22.90;;;20.23;;
17173;SDS011;8702;48.130;-1.696;2023-02-10T06:50:12;24.83;;;20.50;;
17173;SDS011;8702;48.130;-1.696;2023-02-10T06:52:39;24.40;;;19.67;;
17173;SDS011;8702;48.130;-1.696;2023-02-10T06:55:06;27.40;;;20.77;;
17173;SDS011;8702;48.130;-1.696;2023-02-10T06:57:34;24.50;;;20.10;;
17173;SDS011;8702;48.130;-1.696;2023-02-10T07:00:02;23.73;;;19.33;;
17173;SDS011;8702;48.130;-1.696;2023-02-10T07:02:30;25.70;;;19.93;;
17173;SDS011;8702;48.130;-1.696;2023-02-10T07:04:57;27.00;;;20.53;;
17173;SDS011;8702;48.130;-1.696;2023-02-10T07:07:24;23.23;;;19.20;;
17173;SDS011;8702;48.130;-1.696;2023-02-10T07:09:52;26.43;;;20.17;;
17173;SDS011;8702;48.130;-1.696;2023-02-10T07:12:19;22.33;;;19.93;;
17173;SDS011;8702;48.130;-1.696;2023-02-10T07:14:46;23.47;;;20.37;;
17173;SDS011;8702;48.130;-1.696;2023-02-10T07:17:13;23.00;;;20.60;;
17173;SDS011;8702;48.130;-1.696;2023-02-10T07:19:41;25.57;;;20.47;;
17173;SDS011;8702;48.130;-1.696;2023-02-10T07:22:08;23.43;;;20.63;;
17173;SDS011;8702;48.130;-1.696;2023-02-10T07:24:35;25.10;;;21.20;;
17173;SDS011;8702;48.130;-1.696;2023-02-10T07:27:02;26.40;;;19.73;;
17173;SDS011;8702;48.130;-1.696;2023-02-10T07:29:29;24.03;;;21.50;;
17173;SDS011;8702;48.130;-1.696;2023-02-10T07:31:56;24.17;;;20.37;;
17173;SDS011;8702;48.130;-1.696;2023-02-10T07:34:24;23.93;;;20.57;;
17173;SDS011;8702;48.130;-1.696;2023-02-10T07:36:52;24.70;;;19.67;;
17173;SDS011;8702;48.130;-1.696;2023-02-10T07:39:19;25.43;;;19.77;;
17173;SDS011;8702;48.130;-1.696;2023-02-10T07:41:46;24.43;;;19.27;;
17173;SDS011;8702;48.130;-1.696;2023-02-10T07:44:13;26.57;;;20.37;;
17173;SDS011;8702;48.130;-1.696;2023-02-10T07:46:40;22.63;;;19.53;;
17173;SDS011;8702;48.130;-1.696;2023-02-10T07:49:07;27.63;;;20.23;;
17173;SDS011;8702;48.130;-1.696;2023-02-10T07:51:34;22.53;;;19.87;;
17173;SDS011;8702;48.130;-1.696;2023-02-10T07:54:03;25.13;;;19.70;;
17173;SDS011;8702;48.130;-1.696;2023-02-10T07:56:30;21.67;;;19.40;;
17173;SDS011;8702;48.130;-1.696;2023-02-10T07:58:58;24.03;;;19.60;;
17173;SDS011;8702;48.130;-1.696;2023-02-10T08:01:25;25.13;;;19.47;;
17173;SDS011;8702;48.130;-1.696;2023-02-10T08:03:51;25.87;;;20.40;;
17173;SDS011;8702;48.130;-1.696;2023-02-10T08:06:22;25.47;;;19.93;;
17173;SDS011;8702;48.130;-1.696;2023-02-10T08:08:52;21.67;;;19.40;;
17173;SDS011;8702;48.130;-1.696;2023-02-10T08:11:20;22.53;;;18.80;;
17173;SDS011;8702;48.130;-1.696;2023-02-10T08:13:47;30.60;;;20.37;;
17173;SDS011;8702;48.130;-1.696;2023-02-10T08:16:14;23.13;;;19.70;;
17173;SDS011;8702;48.130;-1.696;2023-02-10T08:18:41;22.50;;;19.80;;
17173;SDS011;8702;48.130;-1.696;2023-02-10T08:21:08;23.07;;;19.90;;
17173;SDS011;8702;48.130;-1.696;2023-02-10T08:23:35;25.73;;;20.07;;
17173;SDS011;8702;48.130;-1.696;2023-02-10T08:26:02;24.77;;;19.30;;
17173;SDS011;8702;48.130;-1.696;2023-02-10T08:28:32;24.63;;;18.87;;
17173;SDS011;8702;48.130;-1.696;2023-02-10T08:31:01;25.37;;;20.70;;
17173;SDS011;8702;48.130;-1.696;2023-02-10T08:33:29;25.73;;;19.10;;
17173;SDS011;8702;48.130;-1.696;2023-02-10T08:36:07;25.73;;;20.40;;
17173;SDS011;8702;48.130;-1.696;2023-02-10T08:38:35;24.90;;;19.53;;
17173;SDS011;8702;48.130;-1.696;2023-02-10T08:41:02;22.73;;;18.57;;
17173;SDS011;8702;48.130;-1.696;2023-02-10T08:43:29;23.70;;;19.30;;
17173;SDS011;8702;48.130;-1.696;2023-02-10T08:46:01;25.07;;;19.73;;
17173;SDS011;8702;48.130;-1.696;2023-02-10T08:48:30;24.10;;;19.97;;
17173;SDS011;8702;48.130;-1.696;2023-02-10T08:50:57;23.03;;;19.37;;
17173;SDS011;8702;48.130;-1.696;2023-02-10T08:53:25;22.93;;;19.43;;
17173;SDS011;8702;48.130;-1.696;2023-02-10T08:55:55;26.23;;;19.43;;
17173;SDS011;8702;48.130;-1.696;2023-02-10T08:58:22;23.67;;;19.20;;
17173;SDS011;8702;48.130;-1.696;2023-02-10T09:00:50;26.57;;;19.50;;
17173;SDS011;8702;48.130;-1.696;2023-02-10T09:03:18;23.67;;;19.97;;
17173;SDS011;8702;48.130;-1.696;2023-02-10T09:05:46;21.87;;;19.37;;
17173;SDS011;8702;48.130;-1.696;2023-02-10T09:08:13;28.80;;;21.20;;
17173;SDS011;8702;48.130;-1.696;2023-02-10T09:10:41;25.60;;;19.63;;
17173;SDS011;8702;48.130;-1.696;2023-02-10T09:13:09;25.13;;;20.13;;
17173;SDS011;8702;48.130;-1.696;2023-02-10T09:15:36;25.03;;;19.87;;
17173;SDS011;8702;48.130;-1.696;2023-02-10T09:18:04;26.60;;;18.47;;
17173;SDS011;8702;48.130;-1.696;2023-02-10T09:20:33;21.63;;;18.57;;
17173;SDS011;8702;48.130;-1.696;2023-02-10T09:23:00;22.50;;;19.20;;
17173;SDS011;8702;48.130;-1.696;2023-02-10T09:25:27;24.67;;;19.63;;
17173;SDS011;8702;48.130;-1.696;2023-02-10T09:27:54;25.57;;;20.33;;
17173;SDS011;8702;48.130;-1.696;2023-02-10T09:30:22;21.07;;;18.87;;
17173;SDS011;8702;48.130;-1.696;2023-02-10T09:32:50;22.67;;;19.13;;
17173;SDS011;8702;48.130;-1.696;2023-02-10T09:35:17;23.67;;;19.03;;
17173;SDS011;8702;48.130;-1.696;2023-02-10T09:37:46;21.33;;;19.07;;
17173;SDS011;8702;48.130;-1.696;2023-02-10T09:40:15;24.47;;;19.73;;
17173;SDS011;8702;48.130;-1.696;2023-02-10T09:42:46;24.03;;;19.33;;
17173;SDS011;8702;48.130;-1.696;2023-02-10T09:45:19;28.17;;;20.27;;
17173;SDS011;8702;48.130;-1.696;2023-02-10T09:47:49;24.87;;;19.40;;
17173;SDS011;8702;48.130;-1.696;2023-02-10T09:53:09;23.17;;;18.93;;
17173;SDS011;8702;48.130;-1.696;2023-02-10T09:55:38;21.27;;;18.97;;
17173;SDS011;8702;48.130;-1.696;2023-02-10T09:58:09;26.17;;;18.53;;
17173;SDS011;8702;48.130;-1.696;2023-02-10T10:00:39;23.70;;;18.13;;
17173;SDS011;8702;48.130;-1.696;2023-02-10T10:03:07;21.27;;;18.27;;
17173;SDS011;8702;48.130;-1.696;2023-02-10T10:05:40;20.70;;;18.50;;
17173;SDS011;8702;48.130;-1.696;2023-02-10T10:08:14;22.47;;;16.97;;
17173;SDS011;8702;48.130;-1.696;2023-02-10T10:10:42;20.67;;;16.70;;
17173;SDS011;8702;48.130;-1.696;2023-02-10T10:13:12;21.70;;;17.27;;
17173;SDS011;8702;48.130;-1.696;2023-02-10T10:15:42;24.07;;;18.17;;
17173;SDS011;8702;48.130;-1.696;2023-02-10T10:18:13;19.63;;;17.00;;
17173;SDS011;8702;48.130;-1.696;2023-02-10T10:20:48;22.33;;;16.40;;
17173;SDS011;8702;48.130;-1.696;2023-02-10T10:23:30;21.50;;;16.00;;
17173;SDS011;8702;48.130;-1.696;2023-02-10T10:26:09;19.90;;;16.03;;
17173;SDS011;8702;48.130;-1.696;2023-02-10T10:28:41;24.20;;;15.97;;
17173;SDS011;8702;48.130;-1.696;2023-02-10T10:31:13;25.23;;;17.50;;
17173;SDS011;8702;48.130;-1.696;2023-02-10T10:33:43;21.00;;;15.83;;
17173;SDS011;8702;48.130;-1.696;2023-02-10T10:36:13;20.20;;;15.20;;
17173;SDS011;8702;48.130;-1.696;2023-02-10T10:38:43;17.70;;;14.00;;
17173;SDS011;8702;48.130;-1.696;2023-02-10T10:41:13;16.73;;;12.73;;
17173;SDS011;8702;48.130;-1.696;2023-02-10T10:43:42;21.40;;;14.53;;
17173;SDS011;8702;48.130;-1.696;2023-02-10T10:46:12;18.67;;;14.60;;
17173;SDS011;8702;48.130;-1.696;2023-02-10T10:48:42;15.43;;;13.17;;
17173;SDS011;8702;48.130;-1.696;2023-02-10T10:51:09;18.70;;;14.37;;
17173;SDS011;8702;48.130;-1.696;2023-02-10T10:53:39;19.73;;;15.47;;
17173;SDS011;8702;48.130;-1.696;2023-02-10T10:56:10;22.53;;;16.37;;
17173;SDS011;8702;48.130;-1.696;2023-02-10T10:58:39;24.87;;;18.17;;
17173;SDS011;8702;48.130;-1.696;2023-02-10T11:01:08;26.50;;;19.20;;
17173;SDS011;8702;48.130;-1.696;2023-02-10T11:03:35;24.63;;;18.53;;
17173;SDS011;8702;48.130;-1.696;2023-02-10T11:06:02;21.07;;;16.23;;
17173;SDS011;8702;48.130;-1.696;2023-02-10T11:08:33;22.33;;;16.93;;
17173;SDS011;8702;48.130;-1.696;2023-02-10T11:11:01;21.63;;;17.03;;
17173;SDS011;8702;48.130;-1.696;2023-02-10T11:13:31;21.47;;;17.60;;
17173;SDS011;8702;48.130;-1.696;2023-02-10T11:16:01;24.80;;;18.23;;
17173;SDS011;8702;48.130;-1.696;2023-02-10T11:18:28;25.07;;;18.10;;
17173;SDS011;8702;48.130;-1.696;2023-02-10T11:20:56;21.03;;;16.47;;
17173;SDS011;8702;48.130;-1.696;2023-02-10T11:23:24;21.73;;;16.47;;
17173;SDS011;8702;48.130;-1.696;2023-02-10T11:25:56;21.60;;;16.07;;
17173;SDS011;8702;48.130;-1.696;2023-02-10T11:28:25;21.47;;;15.17;;
17173;SDS011;8702;48.130;-1.696;2023-02-10T11:30:56;22.30;;;16.03;;
17173;SDS011;8702;48.130;-1.696;2023-02-10T11:33:25;21.33;;;16.23;;
17173;SDS011;8702;48.130;-1.696;2023-02-10T11:35:55;22.03;;;15.63;;
17173;SDS011;8702;48.130;-1.696;2023-02-10T11:38:23;21.30;;;15.80;;
17173;SDS011;8702;48.130;-1.696;2023-02-10T11:40:52;20.00;;;15.00;;
17173;SDS011;8702;48.130;-1.696;2023-02-10T11:43:22;20.40;;;15.53;;
17173;SDS011;8702;48.130;-1.696;2023-02-10T11:45:51;20.00;;;14.57;;
17173;SDS011;8702;48.130;-1.696;2023-02-10T11:48:21;15.53;;;13.93;;
17173;SDS011;8702;48.130;-1.696;2023-02-10T11:51:00;18.60;;;14.23;;
17173;SDS011;8702;48.130;-1.696;2023-02-10T11:53:28;18.87;;;14.67;;
17173;SDS011;8702;48.130;-1.696;2023-02-10T11:55:57;22.30;;;13.67;;
17173;SDS011;8702;48.130;-1.696;2023-02-10T11:58:38;16.50;;;13.13;;
17173;SDS011;8702;48.130;-1.696;2023-02-10T12:01:32;22.27;;;13.97;;
17173;SDS011;8702;48.130;-1.696;2023-02-10T12:04:02;17.50;;;12.93;;
17173;SDS011;8702;48.130;-1.696;2023-02-10T12:06:32;17.83;;;13.03;;
17173;SDS011;8702;48.130;-1.696;2023-02-10T12:09:02;14.77;;;13.10;;
17173;SDS011;8702;48.130;-1.696;2023-02-10T12:11:35;12.50;;;10.53;;
17173;SDS011;8702;48.130;-1.696;2023-02-10T12:14:06;17.37;;;11.37;;
17173;SDS011;8702;48.130;-1.696;2023-02-10T12:16:46;16.13;;;11.33;;
17173;SDS011;8702;48.130;-1.696;2023-02-10T12:19:18;15.33;;;12.27;;
17173;SDS011;8702;48.130;-1.696;2023-02-10T12:24:43;15.73;;;12.13;;
17173;SDS011;8702;48.130;-1.696;2023-02-10T12:27:30;14.33;;;11.03;;
17173;SDS011;8702;48.130;-1.696;2023-02-10T12:30:13;14.93;;;11.93;;
17173;SDS011;8702;48.130;-1.696;2023-02-10T12:32:50;15.40;;;10.93;;
17173;SDS011;8702;48.130;-1.696;2023-02-10T12:35:28;18.43;;;11.07;;
17173;SDS011;8702;48.130;-1.696;2023-02-10T12:38:06;12.00;;;10.07;;
17173;SDS011;8702;48.130;-1.696;2023-02-10T12:40:54;11.60;;;9.63;;
17173;SDS011;8702;48.130;-1.696;2023-02-10T12:43:32;10.37;;;9.30;;
17173;SDS011;8702;48.130;-1.696;2023-02-10T12:46:14;12.97;;;9.20;;
17173;SDS011;8702;48.130;-1.696;2023-02-10T12:48:54;12.80;;;8.80;;
17173;SDS011;8702;48.130;-1.696;2023-02-10T12:51:35;11.57;;;8.87;;
17173;SDS011;8702;48.130;-1.696;2023-02-10T12:54:12;10.40;;;9.27;;
17173;SDS011;8702;48.130;-1.696;2023-02-10T12:56:44;12.20;;;8.67;;
17173;SDS011;8702;48.130;-1.696;2023-02-10T12:59:17;12.60;;;8.87;;
17173;SDS011;8702;48.130;-1.696;2023-02-10T13:01:48;11.00;;;9.10;;
17173;SDS011;8702;48.130;-1.696;2023-02-10T13:04:18;11.87;;;8.60;;
17173;SDS011;8702;48.130;-1.696;2023-02-10T13:06:51;12.47;;;8.13;;
17173;SDS011;8702;48.130;-1.696;2023-02-10T13:09:23;9.20;;;8.17;;
17173;SDS011;8702;48.130;-1.696;2023-02-10T13:12:02;9.30;;;8.10;;
17173;SDS011;8702;48.130;-1.696;2023-02-10T13:14:33;9.50;;;8.43;;
17173;SDS011;8702;48.130;-1.696;2023-02-10T13:17:02;9.53;;;6.67;;
17173;SDS011;8702;48.130;-1.696;2023-02-10T13:19:31;5.67;;;5.03;;
17173;SDS011;8702;48.130;-1.696;2023-02-10T13:22:13;10.40;;;5.80;;
17173;SDS011;8702;48.130;-1.696;2023-02-10T13:24:42;7.53;;;6.10;;
17173;SDS011;8702;48.130;-1.696;2023-02-10T13:27:16;9.10;;;6.37;;
17173;SDS011;8702;48.130;-1.696;2023-02-10T13:29:50;8.90;;;6.37;;
17173;SDS011;8702;48.130;-1.696;2023-02-10T13:32:26;9.63;;;6.93;;
17173;SDS011;8702;48.130;-1.696;2023-02-10T13:34:57;11.23;;;7.33;;
17173;SDS011;8702;48.130;-1.696;2023-02-10T13:37:28;10.33;;;7.17;;
17173;SDS011;8702;48.130;-1.696;2023-02-10T13:39:57;7.97;;;6.23;;
17173;SDS011;8702;48.130;-1.696;2023-02-10T13:42:28;7.37;;;6.20;;
17173;SDS011;8702;48.130;-1.696;2023-02-10T13:44:57;8.27;;;6.23;;
17173;SDS011;8702;48.130;-1.696;2023-02-10T13:47:27;9.30;;;6.17;;
17173;SDS011;8702;48.130;-1.696;2023-02-10T13:50:00;7.50;;;5.60;;
17173;SDS011;8702;48.130;-1.696;2023-02-10T13:52:32;6.33;;;5.13;;
17173;SDS011;8702;48.130;-1.696;2023-02-10T13:55:03;14.07;;;8.03;;
17173;SDS011;8702;48.130;-1.696;2023-02-10T13:57:51;7.20;;;5.60;;
17173;SDS011;8702;48.130;-1.696;2023-02-10T14:00:20;8.37;;;5.80;;
17173;SDS011;8702;48.130;-1.696;2023-02-10T14:03:00;12.20;;;7.50;;
17173;SDS011;8702;48.130;-1.696;2023-02-10T14:05:29;7.57;;;6.43;;
17173;SDS011;8702;48.130;-1.696;2023-02-10T14:07:59;7.27;;;5.87;;
17173;SDS011;8702;48.130;-1.696;2023-02-10T14:10:37;9.27;;;6.57;;
17173;SDS011;8702;48.130;-1.696;2023-02-10T14:13:05;6.00;;;5.40;;
17173;SDS011;8702;48.130;-1.696;2023-02-10T14:15:53;7.67;;;6.33;;
17173;SDS011;8702;48.130;-1.696;2023-02-10T14:18:24;10.77;;;6.73;;
17173;SDS011;8702;48.130;-1.696;2023-02-10T14:20:55;11.33;;;5.90;;
17173;SDS011;8702;48.130;-1.696;2023-02-10T14:23:26;8.80;;;5.40;;
17173;SDS011;8702;48.130;-1.696;2023-02-10T14:25:57;10.10;;;5.23;;
17173;SDS011;8702;48.130;-1.696;2023-02-10T14:28:27;6.47;;;5.23;;
17173;SDS011;8702;48.130;-1.696;2023-02-10T14:30:57;7.10;;;5.57;;
17173;SDS011;8702;48.130;-1.696;2023-02-10T14:33:27;7.27;;;5.83;;
17173;SDS011;8702;48.130;-1.696;2023-02-10T14:35:59;7.17;;;5.03;;
17173;SDS011;8702;48.130;-1.696;2023-02-10T14:38:28;5.53;;;4.70;;
17173;SDS011;8702;48.130;-1.696;2023-02-10T14:40:58;7.70;;;5.03;;
17173;SDS011;8702;48.130;-1.696;2023-02-10T14:43:26;8.27;;;5.07;;
17173;SDS011;8702;48.130;-1.696;2023-02-10T14:45:54;9.10;;;6.27;;
17173;SDS011;8702;48.130;-1.696;2023-02-10T14:48:24;7.73;;;5.93;;